Pennersville, Pennsylvania
Current Conditions -  °F | °C
As of 11:53 PM on Wednesday 22 Oct 2014 (Local Time) from KRYT Reporting Station
Broken Clouds Broken Clouds  
Wind Chill: 46°   Ceiling: 12000
Heat Index: 49°   Visibility: 10mi
Dew Point: 40°   Wind: 7mph
Humidity: 71%   Direction: NA
Pressure: 29.95"   Gusts: NA
Location:  39.7777°N, 77.5693°W
Report Text: KRYT 230353Z AUTO VRB06KT 10SM SCT026 BKN120 09/04 A2995 RMK AO2 SLP143 T00940044 $
Loading
Personal Weather Stations






























Interactive Weather Map
Tropical Storm Tracking
New forecast layout! Learn more

10-Day Weather Forecast

Advertisements
Track Severe Weather on mobile